sensor_id;sensor_type;location;lat;lon;timestamp;temperature;humidity
36458;DHT22;22480;50.546;12.292;2023-04-25T00:02:18;5.10;99.90
36458;DHT22;22480;50.546;12.292;2023-04-25T00:04:45;5.20;99.90
36458;DHT22;22480;50.546;12.292;2023-04-25T00:07:11;5.20;99.90
36458;DHT22;22480;50.546;12.292;2023-04-25T00:09:38;5.20;99.90
36458;DHT22;22480;50.546;12.292;2023-04-25T00:12:03;5.30;99.90
36458;DHT22;22480;50.546;12.292;2023-04-25T00:14:30;5.30;99.90
36458;DHT22;22480;50.546;12.292;2023-04-25T00:16:55;5.30;99.90
36458;DHT22;22480;50.546;12.292;2023-04-25T00:19:21;5.40;99.90
36458;DHT22;22480;50.546;12.292;2023-04-25T00:21:47;5.40;99.90
36458;DHT22;22480;50.546;12.292;2023-04-25T00:24:13;5.40;99.90
36458;DHT22;22480;50.546;12.292;2023-04-25T00:26:39;5.40;99.90
36458;DHT22;22480;50.546;12.292;2023-04-25T00:29:04;5.40;99.90
36458;DHT22;22480;50.546;12.292;2023-04-25T00:31:30;5.40;99.90
36458;DHT22;22480;50.546;12.292;2023-04-25T00:33:56;5.50;99.90
36458;DHT22;22480;50.546;12.292;2023-04-25T00:36:22;5.50;99.90
36458;DHT22;22480;50.546;12.292;2023-04-25T00:38:47;5.50;99.90
36458;DHT22;22480;50.546;12.292;2023-04-25T00:41:13;5.50;99.90
36458;DHT22;22480;50.546;12.292;2023-04-25T00:43:39;5.60;99.90
36458;DHT22;22480;50.546;12.292;2023-04-25T00:46:05;5.60;99.90
36458;DHT22;22480;50.546;12.292;2023-04-25T00:48:31;5.70;99.90
36458;DHT22;22480;50.546;12.292;2023-04-25T00:50:58;5.70;99.90
36458;DHT22;22480;50.546;12.292;2023-04-25T00:53:26;5.70;99.90
36458;DHT22;22480;50.546;12.292;2023-04-25T00:55:53;5.70;99.90
36458;DHT22;22480;50.546;12.292;2023-04-25T00:58:20;5.70;99.90
36458;DHT22;22480;50.546;12.292;2023-04-25T01:00:47;5.80;99.90
36458;DHT22;22480;50.546;12.292;2023-04-25T01:03:14;5.80;99.90
36458;DHT22;22480;50.546;12.292;2023-04-25T01:05:42;5.80;99.90
36458;DHT22;22480;50.546;12.292;2023-04-25T01:08:08;5.80;99.90
36458;DHT22;22480;50.546;12.292;2023-04-25T01:10:35;5.80;99.90
36458;DHT22;22480;50.546;12.292;2023-04-25T01:13:01;5.80;99.90
36458;DHT22;22480;50.546;12.292;2023-04-25T01:15:27;5.80;99.90
36458;DHT22;22480;50.546;12.292;2023-04-25T01:17:53;5.90;99.90
36458;DHT22;22480;50.546;12.292;2023-04-25T01:20:24;5.80;99.90
36458;DHT22;22480;50.546;12.292;2023-04-25T01:22:51;5.90;99.90
36458;DHT22;22480;50.546;12.292;2023-04-25T01:25:18;6.00;99.90
36458;DHT22;22480;50.546;12.292;2023-04-25T01:27:45;6.00;99.90
36458;DHT22;22480;50.546;12.292;2023-04-25T01:30:11;6.00;99.90
36458;DHT22;22480;50.546;12.292;2023-04-25T01:32:37;6.10;99.90
36458;DHT22;22480;50.546;12.292;2023-04-25T01:35:08;6.20;99.90
36458;DHT22;22480;50.546;12.292;2023-04-25T01:37:44;6.20;99.90
36458;DHT22;22480;50.546;12.292;2023-04-25T01:40:12;6.20;99.90
36458;DHT22;22480;50.546;12.292;2023-04-25T01:42:42;6.20;99.90
36458;DHT22;22480;50.546;12.292;2023-04-25T01:45:09;6.30;99.90
36458;DHT22;22480;50.546;12.292;2023-04-25T01:47:36;6.30;99.90
36458;DHT22;22480;50.546;12.292;2023-04-25T01:50:03;6.30;99.90
36458;DHT22;22480;50.546;12.292;2023-04-25T01:52:30;6.30;99.90
36458;DHT22;22480;50.546;12.292;2023-04-25T01:54:57;6.30;99.90
36458;DHT22;22480;50.546;12.292;2023-04-25T01:57:26;6.30;99.90
36458;DHT22;22480;50.546;12.292;2023-04-25T01:59:59;6.20;99.90
36458;DHT22;22480;50.546;12.292;2023-04-25T02:02:38;6.30;99.90
36458;DHT22;22480;50.546;12.292;2023-04-25T02:05:06;6.30;99.90
36458;DHT22;22480;50.546;12.292;2023-04-25T02:07:36;6.30;99.90
36458;DHT22;22480;50.546;12.292;2023-04-25T02:10:01;6.30;99.90
36458;DHT22;22480;50.546;12.292;2023-04-25T02:12:31;6.20;99.90
36458;DHT22;22480;50.546;12.292;2023-04-25T02:15:23;6.20;99.90
36458;DHT22;22480;50.546;12.292;2023-04-25T02:17:53;6.20;99.90
36458;DHT22;22480;50.546;12.292;2023-04-25T02:20:22;6.10;99.90
36458;DHT22;22480;50.546;12.292;2023-04-25T02:22:48;6.10;99.90
36458;DHT22;22480;50.546;12.292;2023-04-25T02:25:15;6.10;99.90
36458;DHT22;22480;50.546;12.292;2023-04-25T02:27:42;6.10;99.90
36458;DHT22;22480;50.546;12.292;2023-04-25T02:30:08;6.10;99.90
36458;DHT22;22480;50.546;12.292;2023-04-25T02:32:34;6.00;99.90
36458;DHT22;22480;50.546;12.292;2023-04-25T02:35:01;6.00;99.90
36458;DHT22;22480;50.546;12.292;2023-04-25T02:37:34;5.90;99.90
36458;DHT22;22480;50.546;12.292;2023-04-25T02:40:00;6.00;99.90
36458;DHT22;22480;50.546;12.292;2023-04-25T02:42:27;5.90;99.90
36458;DHT22;22480;50.546;12.292;2023-04-25T02:44:53;5.90;99.90
36458;DHT22;22480;50.546;12.292;2023-04-25T02:47:20;5.90;99.90
36458;DHT22;22480;50.546;12.292;2023-04-25T02:49:45;5.90;99.90
36458;DHT22;22480;50.546;12.292;2023-04-25T02:52:12;5.90;99.90
36458;DHT22;22480;50.546;12.292;2023-04-25T02:54:38;5.80;99.90
36458;DHT22;22480;50.546;12.292;2023-04-25T02:57:04;5.90;99.90
36458;DHT22;22480;50.546;12.292;2023-04-25T02:59:35;5.80;99.90
36458;DHT22;22480;50.546;12.292;2023-04-25T03:02:00;5.80;99.90
36458;DHT22;22480;50.546;12.292;2023-04-25T03:04:27;5.80;99.90
36458;DHT22;22480;50.546;12.292;2023-04-25T03:06:53;5.80;99.90
36458;DHT22;22480;50.546;12.292;2023-04-25T03:09:20;5.70;99.90
36458;DHT22;22480;50.546;12.292;2023-04-25T03:11:46;5.80;99.90
36458;DHT22;22480;50.546;12.292;2023-04-25T03:14:12;5.80;99.90
36458;DHT22;22480;50.546;12.292;2023-04-25T03:16:38;5.80;99.90
36458;DHT22;22480;50.546;12.292;2023-04-25T03:19:05;5.80;99.90
36458;DHT22;22480;50.546;12.292;2023-04-25T03:21:33;5.80;99.90
36458;DHT22;22480;50.546;12.292;2023-04-25T03:24:00;5.80;99.90
36458;DHT22;22480;50.546;12.292;2023-04-25T03:26:27;5.80;99.90
36458;DHT22;22480;50.546;12.292;2023-04-25T03:28:53;5.80;99.90
36458;DHT22;22480;50.546;12.292;2023-04-25T03:31:19;5.80;99.90
36458;DHT22;22480;50.546;12.292;2023-04-25T03:33:45;5.80;99.90
36458;DHT22;22480;50.546;12.292;2023-04-25T03:36:11;5.80;99.90
36458;DHT22;22480;50.546;12.292;2023-04-25T03:38:37;5.80;99.90
36458;DHT22;22480;50.546;12.292;2023-04-25T03:41:07;5.80;99.90
36458;DHT22;22480;50.546;12.292;2023-04-25T03:43:53;5.80;99.90
36458;DHT22;22480;50.546;12.292;2023-04-25T03:46:20;5.80;99.90
36458;DHT22;22480;50.546;12.292;2023-04-25T03:48:46;5.80;99.90
36458;DHT22;22480;50.546;12.292;2023-04-25T03:51:19;5.80;99.90
36458;DHT22;22480;50.546;12.292;2023-04-25T03:53:45;5.80;99.90
36458;DHT22;22480;50.546;12.292;2023-04-25T03:56:19;5.70;99.90
36458;DHT22;22480;50.546;12.292;2023-04-25T03:58:49;5.80;99.90
36458;DHT22;22480;50.546;12.292;2023-04-25T04:01:17;5.70;99.90
36458;DHT22;22480;50.546;12.292;2023-04-25T04:03:42;5.70;99.90
36458;DHT22;22480;50.546;12.292;2023-04-25T04:06:09;5.70;99.90
36458;DHT22;22480;50.546;12.292;2023-04-25T04:08:39;5.70;99.90
36458;DHT22;22480;50.546;12.292;2023-04-25T04:11:05;5.70;99.90
36458;DHT22;22480;50.546;12.292;2023-04-25T04:13:31;5.70;99.90
36458;DHT22;22480;50.546;12.292;2023-04-25T04:15:57;5.70;99.90
36458;DHT22;22480;50.546;12.292;2023-04-25T04:18:23;5.60;99.90
36458;DHT22;22480;50.546;12.292;2023-04-25T04:20:49;5.70;99.90
36458;DHT22;22480;50.546;12.292;2023-04-25T04:23:16;5.70;99.90
36458;DHT22;22480;50.546;12.292;2023-04-25T04:25:42;5.80;99.90
36458;DHT22;22480;50.546;12.292;2023-04-25T04:28:30;5.80;99.90
36458;DHT22;22480;50.546;12.292;2023-04-25T04:31:22;5.80;99.90
36458;DHT22;22480;50.546;12.292;2023-04-25T04:33:47;5.80;99.90
36458;DHT22;22480;50.546;12.292;2023-04-25T04:36:14;5.80;99.90
36458;DHT22;22480;50.546;12.292;2023-04-25T04:38:41;5.90;99.90
36458;DHT22;22480;50.546;12.292;2023-04-25T04:41:11;5.90;99.90
36458;DHT22;22480;50.546;12.292;2023-04-25T04:43:47;5.90;99.90
36458;DHT22;22480;50.546;12.292;2023-04-25T04:46:51;5.90;99.90
36458;DHT22;22480;50.546;12.292;2023-04-25T04:49:30;6.00;99.90
36458;DHT22;22480;50.546;12.292;2023-04-25T04:52:17;6.00;99.90
36458;DHT22;22480;50.546;12.292;2023-04-25T04:54:59;6.20;99.90
36458;DHT22;22480;50.546;12.292;2023-04-25T04:57:50;6.20;99.90
36458;DHT22;22480;50.546;12.292;2023-04-25T05:00:34;6.20;99.90
36458;DHT22;22480;50.546;12.292;2023-04-25T05:03:20;6.20;99.90
36458;DHT22;22480;50.546;12.292;2023-04-25T05:06:05;6.20;99.90
36458;DHT22;22480;50.546;12.292;2023-04-25T05:08:51;6.20;99.90
36458;DHT22;22480;50.546;12.292;2023-04-25T05:11:35;6.20;99.90
36458;DHT22;22480;50.546;12.292;2023-04-25T05:14:21;6.10;99.90
36458;DHT22;22480;50.546;12.292;2023-04-25T05:17:23;6.00;99.90
36458;DHT22;22480;50.546;12.292;2023-04-25T05:19:55;5.90;99.90
36458;DHT22;22480;50.546;12.292;2023-04-25T05:22:33;5.90;99.90
36458;DHT22;22480;50.546;12.292;2023-04-25T05:25:11;5.80;99.90
36458;DHT22;22480;50.546;12.292;2023-04-25T05:28:02;5.80;99.90
36458;DHT22;22480;50.546;12.292;2023-04-25T05:30:46;5.70;99.90
36458;DHT22;22480;50.546;12.292;2023-04-25T05:33:21;5.70;99.90
36458;DHT22;22480;50.546;12.292;2023-04-25T05:35:48;5.50;99.90
36458;DHT22;22480;50.546;12.292;2023-04-25T05:38:14;5.40;99.90
36458;DHT22;22480;50.546;12.292;2023-04-25T05:41:18;5.30;99.90
36458;DHT22;22480;50.546;12.292;2023-04-25T05:43:48;5.20;99.90
36458;DHT22;22480;50.546;12.292;2023-04-25T05:46:28;5.10;99.90
36458;DHT22;22480;50.546;12.292;2023-04-25T05:49:11;4.90;99.90
36458;DHT22;22480;50.546;12.292;2023-04-25T05:51:56;4.80;99.90
36458;DHT22;22480;50.546;12.292;2023-04-25T05:54:30;4.60;99.90
36458;DHT22;22480;50.546;12.292;2023-04-25T05:56:57;4.30;99.90
36458;DHT22;22480;50.546;12.292;2023-04-25T05:59:23;4.20;99.90
36458;DHT22;22480;50.546;12.292;2023-04-25T06:01:49;4.10;99.90
36458;DHT22;22480;50.546;12.292;2023-04-25T06:04:14;4.00;99.90
36458;DHT22;22480;50.546;12.292;2023-04-25T06:06:40;4.00;99.90
36458;DHT22;22480;50.546;12.292;2023-04-25T06:09:06;4.00;99.90
36458;DHT22;22480;50.546;12.292;2023-04-25T06:11:32;4.00;99.90
36458;DHT22;22480;50.546;12.292;2023-04-25T06:13:57;4.10;99.90
36458;DHT22;22480;50.546;12.292;2023-04-25T06:16:24;4.20;99.90
36458;DHT22;22480;50.546;12.292;2023-04-25T06:18:51;4.30;99.90
36458;DHT22;22480;50.546;12.292;2023-04-25T06:21:17;4.30;99.90
36458;DHT22;22480;50.546;12.292;2023-04-25T06:23:42;4.30;99.90
36458;DHT22;22480;50.546;12.292;2023-04-25T06:26:11;4.50;99.90
36458;DHT22;22480;50.546;12.292;2023-04-25T06:28:39;4.60;99.90
36458;DHT22;22480;50.546;12.292;2023-04-25T06:31:05;4.70;99.90
36458;DHT22;22480;50.546;12.292;2023-04-25T06:33:31;4.90;99.90
36458;DHT22;22480;50.546;12.292;2023-04-25T06:35:57;5.00;99.90
36458;DHT22;22480;50.546;12.292;2023-04-25T06:38:26;5.10;99.90
36458;DHT22;22480;50.546;12.292;2023-04-25T06:40:53;5.30;99.90
36458;DHT22;22480;50.546;12.292;2023-04-25T06:43:19;5.40;99.90
36458;DHT22;22480;50.546;12.292;2023-04-25T06:46:05;5.50;99.90
36458;DHT22;22480;50.546;12.292;2023-04-25T06:48:34;5.70;99.90
36458;DHT22;22480;50.546;12.292;2023-04-25T06:51:00;5.90;99.90
36458;DHT22;22480;50.546;12.292;2023-04-25T06:53:27;6.00;99.90
36458;DHT22;22480;50.546;12.292;2023-04-25T06:56:04;6.20;99.90
36458;DHT22;22480;50.546;12.292;2023-04-25T06:59:02;6.40;99.90
36458;DHT22;22480;50.546;12.292;2023-04-25T07:01:36;6.70;99.90
36458;DHT22;22480;50.546;12.292;2023-04-25T07:04:05;7.00;99.90
36458;DHT22;22480;50.546;12.292;2023-04-25T07:06:33;7.40;99.90
36458;DHT22;22480;50.546;12.292;2023-04-25T07:08:58;7.70;99.90
36458;DHT22;22480;50.546;12.292;2023-04-25T07:11:25;8.00;99.90
36458;DHT22;22480;50.546;12.292;2023-04-25T07:13:51;8.40;99.90
36458;DHT22;22480;50.546;12.292;2023-04-25T07:16:17;9.20;99.90
36458;DHT22;22480;50.546;12.292;2023-04-25T07:18:43;9.80;99.90
36458;DHT22;22480;50.546;12.292;2023-04-25T07:21:09;9.80;99.90
36458;DHT22;22480;50.546;12.292;2023-04-25T07:23:36;9.60;99.90
36458;DHT22;22480;50.546;12.292;2023-04-25T07:26:08;9.30;99.90
36458;DHT22;22480;50.546;12.292;2023-04-25T07:28:35;9.40;99.90
36458;DHT22;22480;50.546;12.292;2023-04-25T07:31:01;9.50;99.90
36458;DHT22;22480;50.546;12.292;2023-04-25T07:33:27;9.40;99.90
36458;DHT22;22480;50.546;12.292;2023-04-25T07:35:53;9.20;99.90
36458;DHT22;22480;50.546;12.292;2023-04-25T07:38:19;9.30;99.90
36458;DHT22;22480;50.546;12.292;2023-04-25T07:40:47;9.30;99.90
36458;DHT22;22480;50.546;12.292;2023-04-25T07:43:13;9.10;99.90
36458;DHT22;22480;50.546;12.292;2023-04-25T07:45:52;9.20;99.90
36458;DHT22;22480;50.546;12.292;2023-04-25T07:48:19;9.20;99.90
36458;DHT22;22480;50.546;12.292;2023-04-25T07:50:46;9.20;99.90
36458;DHT22;22480;50.546;12.292;2023-04-25T07:53:11;9.10;99.90
36458;DHT22;22480;50.546;12.292;2023-04-25T07:55:45;9.00;99.90
36458;DHT22;22480;50.546;12.292;2023-04-25T07:58:14;8.80;99.90
36458;DHT22;22480;50.546;12.292;2023-04-25T08:00:43;8.60;99.90
36458;DHT22;22480;50.546;12.292;2023-04-25T08:03:29;8.40;99.90
36458;DHT22;22480;50.546;12.292;2023-04-25T08:05:57;8.20;99.90
36458;DHT22;22480;50.546;12.292;2023-04-25T08:08:25;8.30;99.90
36458;DHT22;22480;50.546;12.292;2023-04-25T08:10:51;8.20;99.90
36458;DHT22;22480;50.546;12.292;2023-04-25T08:13:17;8.20;99.90
36458;DHT22;22480;50.546;12.292;2023-04-25T08:15:44;8.20;99.90
36458;DHT22;22480;50.546;12.292;2023-04-25T08:18:10;8.20;99.90
36458;DHT22;22480;50.546;12.292;2023-04-25T08:20:36;8.30;99.90
36458;DHT22;22480;50.546;12.292;2023-04-25T08:23:04;8.80;99.90
36458;DHT22;22480;50.546;12.292;2023-04-25T08:25:46;9.60;99.90
36458;DHT22;22480;50.546;12.292;2023-04-25T08:28:15;9.80;99.90
36458;DHT22;22480;50.546;12.292;2023-04-25T08:30:41;9.40;99.90
36458;DHT22;22480;50.546;12.292;2023-04-25T08:33:10;9.10;99.90
36458;DHT22;22480;50.546;12.292;2023-04-25T08:35:56;8.60;99.90
36458;DHT22;22480;50.546;12.292;2023-04-25T08:38:22;8.60;99.90
36458;DHT22;22480;50.546;12.292;2023-04-25T08:40:51;8.70;99.90
36458;DHT22;22480;50.546;12.292;2023-04-25T08:43:20;8.80;99.90
36458;DHT22;22480;50.546;12.292;2023-04-25T08:45:46;9.30;99.90
36458;DHT22;22480;50.546;12.292;2023-04-25T08:48:21;9.50;99.90
36458;DHT22;22480;50.546;12.292;2023-04-25T08:50:53;9.40;99.90
36458;DHT22;22480;50.546;12.292;2023-04-25T08:53:25;9.10;99.90
36458;DHT22;22480;50.546;12.292;2023-04-25T08:55:53;8.80;99.90
36458;DHT22;22480;50.546;12.292;2023-04-25T08:58:20;8.50;99.90
36458;DHT22;22480;50.546;12.292;2023-04-25T09:00:47;8.40;99.90
36458;DHT22;22480;50.546;12.292;2023-04-25T09:03:14;8.20;99.90
36458;DHT22;22480;50.546;12.292;2023-04-25T09:05:41;8.10;99.90
36458;DHT22;22480;50.546;12.292;2023-04-25T09:08:07;8.30;99.90
36458;DHT22;22480;50.546;12.292;2023-04-25T09:10:34;8.70;99.90
36458;DHT22;22480;50.546;12.292;2023-04-25T09:13:13;9.00;99.90
36458;DHT22;22480;50.546;12.292;2023-04-25T09:16:03;9.00;99.90
36458;DHT22;22480;50.546;12.292;2023-04-25T09:18:40;9.00;99.90
36458;DHT22;22480;50.546;12.292;2023-04-25T09:21:11;8.80;99.90
36458;DHT22;22480;50.546;12.292;2023-04-25T09:23:47;8.50;99.90
36458;DHT22;22480;50.546;12.292;2023-04-25T09:26:19;8.20;99.90
36458;DHT22;22480;50.546;12.292;2023-04-25T09:28:45;8.10;99.90
36458;DHT22;22480;50.546;12.292;2023-04-25T09:31:23;8.20;99.90
36458;DHT22;22480;50.546;12.292;2023-04-25T09:33:59;8.30;99.90
36458;DHT22;22480;50.546;12.292;2023-04-25T09:36:27;8.40;99.90
36458;DHT22;22480;50.546;12.292;2023-04-25T09:39:12;8.30;99.90
36458;DHT22;22480;50.546;12.292;2023-04-25T09:41:44;8.20;99.90
36458;DHT22;22480;50.546;12.292;2023-04-25T09:44:12;8.20;99.90
36458;DHT22;22480;50.546;12.292;2023-04-25T09:46:39;8.10;99.90
36458;DHT22;22480;50.546;12.292;2023-04-25T09:49:14;8.10;99.90
36458;DHT22;22480;50.546;12.292;2023-04-25T09:51:59;8.00;99.90
36458;DHT22;22480;50.546;12.292;2023-04-25T09:54:41;7.90;99.90
36458;DHT22;22480;50.546;12.292;2023-04-25T09:57:23;7.60;99.90
36458;DHT22;22480;50.546;12.292;2023-04-25T09:59:52;7.40;99.90
36458;DHT22;22480;50.546;12.292;2023-04-25T10:02:22;7.40;99.90
36458;DHT22;22480;50.546;12.292;2023-04-25T10:04:52;7.40;99.90
36458;DHT22;22480;50.546;12.292;2023-04-25T10:07:30;7.60;99.90
36458;DHT22;22480;50.546;12.292;2023-04-25T10:10:01;7.80;99.90
36458;DHT22;22480;50.546;12.292;2023-04-25T10:12:28;7.80;99.90
36458;DHT22;22480;50.546;12.292;2023-04-25T10:14:54;7.70;99.90
36458;DHT22;22480;50.546;12.292;2023-04-25T10:17:20;7.70;99.90
36458;DHT22;22480;50.546;12.292;2023-04-25T10:19:49;7.60;99.90
36458;DHT22;22480;50.546;12.292;2023-04-25T10:22:37;7.50;99.90
36458;DHT22;22480;50.546;12.292;2023-04-25T10:25:05;7.60;99.90
36458;DHT22;22480;50.546;12.292;2023-04-25T10:27:32;7.60;99.90
36458;DHT22;22480;50.546;12.292;2023-04-25T10:30:24;7.40;99.90
36458;DHT22;22480;50.546;12.292;2023-04-25T10:32:50;7.30;99.90
36458;DHT22;22480;50.546;12.292;2023-04-25T10:35:18;7.30;99.90
36458;DHT22;22480;50.546;12.292;2023-04-25T10:40:31;7.60;99.90
36458;DHT22;22480;50.546;12.292;2023-04-25T10:46:02;8.00;99.90
36458;DHT22;22480;50.546;12.292;2023-04-25T10:48:30;8.40;99.90
36458;DHT22;22480;50.546;12.292;2023-04-25T10:54:04;9.20;99.90
36458;DHT22;22480;50.546;12.292;2023-04-25T10:59:16;9.60;99.90
36458;DHT22;22480;50.546;12.292;2023-04-25T11:01:53;9.80;99.90
36458;DHT22;22480;50.546;12.292;2023-04-25T11:04:23;9.30;99.90
36458;DHT22;22480;50.546;12.292;2023-04-25T11:09:25;8.50;99.90
36458;DHT22;22480;50.546;12.292;2023-04-25T11:11:58;8.30;99.90
36458;DHT22;22480;50.546;12.292;2023-04-25T11:14:26;8.20;99.90
36458;DHT22;22480;50.546;12.292;2023-04-25T11:16:56;8.00;99.90
36458;DHT22;22480;50.546;12.292;2023-04-25T11:19:23;7.90;99.90
36458;DHT22;22480;50.546;12.292;2023-04-25T11:21:50;7.90;99.90
36458;DHT22;22480;50.546;12.292;2023-04-25T11:24:18;7.90;99.90
36458;DHT22;22480;50.546;12.292;2023-04-25T11:26:47;7.90;99.90
36458;DHT22;22480;50.546;12.292;2023-04-25T11:29:13;8.10;99.90
36458;DHT22;22480;50.546;12.292;2023-04-25T11:31:43;8.00;99.90
36458;DHT22;22480;50.546;12.292;2023-04-25T11:34:10;7.90;99.90
36458;DHT22;22480;50.546;12.292;2023-04-25T11:36:38;8.10;99.90
36458;DHT22;22480;50.546;12.292;2023-04-25T11:39:04;8.50;99.90
36458;DHT22;22480;50.546;12.292;2023-04-25T11:41:31;8.80;99.90
36458;DHT22;22480;50.546;12.292;2023-04-25T11:43:57;9.00;99.90
36458;DHT22;22480;50.546;12.292;2023-04-25T11:46:23;8.70;99.90
36458;DHT22;22480;50.546;12.292;2023-04-25T11:48:48;8.50;99.90
36458;DHT22;22480;50.546;12.292;2023-04-25T11:51:15;8.30;99.90
36458;DHT22;22480;50.546;12.292;2023-04-25T11:53:44;8.30;99.90
36458;DHT22;22480;50.546;12.292;2023-04-25T11:56:10;8.40;99.90
36458;DHT22;22480;50.546;12.292;2023-04-25T11:58:59;8.80;99.90
36458;DHT22;22480;50.546;12.292;2023-04-25T12:01:31;9.30;99.90
36458;DHT22;22480;50.546;12.292;2023-04-25T12:03:58;9.50;99.90
36458;DHT22;22480;50.546;12.292;2023-04-25T12:06:27;9.50;99.90
36458;DHT22;22480;50.546;12.292;2023-04-25T12:09:04;9.10;99.90
36458;DHT22;22480;50.546;12.292;2023-04-25T12:11:40;9.10;99.90
36458;DHT22;22480;50.546;12.292;2023-04-25T12:14:06;8.80;99.90
36458;DHT22;22480;50.546;12.292;2023-04-25T12:16:42;9.10;99.90
36458;DHT22;22480;50.546;12.292;2023-04-25T12:19:09;9.80;99.90
36458;DHT22;22480;50.546;12.292;2023-04-25T12:21:35;11.10;99.90
36458;DHT22;22480;50.546;12.292;2023-04-25T12:26:53;10.60;99.90
36458;DHT22;22480;50.546;12.292;2023-04-25T12:29:24;9.90;99.90
36458;DHT22;22480;50.546;12.292;2023-04-25T12:31:51;9.30;99.90
36458;DHT22;22480;50.546;12.292;2023-04-25T12:34:20;9.00;99.90
36458;DHT22;22480;50.546;12.292;2023-04-25T12:36:48;8.60;99.90
36458;DHT22;22480;50.546;12.292;2023-04-25T12:39:21;8.60;99.90
36458;DHT22;22480;50.546;12.292;2023-04-25T12:41:51;8.70;99.90
36458;DHT22;22480;50.546;12.292;2023-04-25T12:44:19;8.90;99.90
36458;DHT22;22480;50.546;12.292;2023-04-25T12:46:45;8.70;99.90
36458;DHT22;22480;50.546;12.292;2023-04-25T12:49:10;8.60;99.90
36458;DHT22;22480;50.546;12.292;2023-04-25T12:51:37;8.60;99.90
36458;DHT22;22480;50.546;12.292;2023-04-25T12:54:04;8.60;99.90
36458;DHT22;22480;50.546;12.292;2023-04-25T12:56:30;8.80;99.90
36458;DHT22;22480;50.546;12.292;2023-04-25T12:58:56;9.10;99.90
36458;DHT22;22480;50.546;12.292;2023-04-25T13:01:23;9.40;99.90
36458;DHT22;22480;50.546;12.292;2023-04-25T13:03:49;9.90;99.90
36458;DHT22;22480;50.546;12.292;2023-04-25T13:06:16;10.50;99.90
36458;DHT22;22480;50.546;12.292;2023-04-25T13:08:42;10.60;99.90
36458;DHT22;22480;50.546;12.292;2023-04-25T13:11:08;10.80;99.90
36458;DHT22;22480;50.546;12.292;2023-04-25T13:13:34;11.00;99.90
36458;DHT22;22480;50.546;12.292;2023-04-25T13:16:04;11.50;99.90
36458;DHT22;22480;50.546;12.292;2023-04-25T13:18:33;11.60;99.90
36458;DHT22;22480;50.546;12.292;2023-04-25T13:20:59;11.40;99.90
36458;DHT22;22480;50.546;12.292;2023-04-25T13:23:27;10.60;99.90
36458;DHT22;22480;50.546;12.292;2023-04-25T13:25:53;10.00;99.90
36458;DHT22;22480;50.546;12.292;2023-04-25T13:28:19;9.40;99.90
36458;DHT22;22480;50.546;12.292;2023-04-25T13:30:45;9.00;99.90
36458;DHT22;22480;50.546;12.292;2023-04-25T13:33:12;8.90;99.90
36458;DHT22;22480;50.546;12.292;2023-04-25T13:35:38;9.00;99.90
36458;DHT22;22480;50.546;12.292;2023-04-25T13:38:04;9.00;99.90
36458;DHT22;22480;50.546;12.292;2023-04-25T13:40:30;9.10;99.90
36458;DHT22;22480;50.546;12.292;2023-04-25T13:42:56;9.10;99.90
36458;DHT22;22480;50.546;12.292;2023-04-25T13:45:22;9.30;99.90
36458;DHT22;22480;50.546;12.292;2023-04-25T13:47:48;9.60;99.90
36458;DHT22;22480;50.546;12.292;2023-04-25T13:50:14;10.00;99.90
36458;DHT22;22480;50.546;12.292;2023-04-25T13:52:41;10.20;99.90
36458;DHT22;22480;50.546;12.292;2023-04-25T13:55:07;10.70;95.20
36458;DHT22;22480;50.546;12.292;2023-04-25T13:57:34;10.90;85.30
36458;DHT22;22480;50.546;12.292;2023-04-25T14:00:00;10.60;89.80
36458;DHT22;22480;50.546;12.292;2023-04-25T14:02:32;10.50;92.30
36458;DHT22;22480;50.546;12.292;2023-04-25T14:04:57;10.20;96.00
36458;DHT22;22480;50.546;12.292;2023-04-25T14:07:23;10.90;99.90
36458;DHT22;22480;50.546;12.292;2023-04-25T14:09:50;12.60;91.80
36458;DHT22;22480;50.546;12.292;2023-04-25T14:12:16;13.70;76.60
36458;DHT22;22480;50.546;12.292;2023-04-25T14:14:41;13.50;69.10
36458;DHT22;22480;50.546;12.292;2023-04-25T14:17:08;12.80;70.50
36458;DHT22;22480;50.546;12.292;2023-04-25T14:19:34;12.10;81.50
36458;DHT22;22480;50.546;12.292;2023-04-25T14:22:00;11.70;80.90
36458;DHT22;22480;50.546;12.292;2023-04-25T14:24:26;11.30;81.30
36458;DHT22;22480;50.546;12.292;2023-04-25T14:26:51;11.00;80.00
36458;DHT22;22480;50.546;12.292;2023-04-25T14:29:17;10.80;83.50
36458;DHT22;22480;50.546;12.292;2023-04-25T14:31:43;11.40;87.50
36458;DHT22;22480;50.546;12.292;2023-04-25T14:34:08;12.60;78.10
36458;DHT22;22480;50.546;12.292;2023-04-25T14:36:35;13.20;77.00
36458;DHT22;22480;50.546;12.292;2023-04-25T14:39:01;13.80;74.80
36458;DHT22;22480;50.546;12.292;2023-04-25T14:41:27;14.20;67.50
36458;DHT22;22480;50.546;12.292;2023-04-25T14:43:53;14.00;66.60
36458;DHT22;22480;50.546;12.292;2023-04-25T14:46:19;13.50;69.50
36458;DHT22;22480;50.546;12.292;2023-04-25T14:48:46;12.50;70.80
36458;DHT22;22480;50.546;12.292;2023-04-25T14:51:12;11.50;83.50
36458;DHT22;22480;50.546;12.292;2023-04-25T14:53:39;10.50;93.80
36458;DHT22;22480;50.546;12.292;2023-04-25T14:56:05;9.70;96.70
36458;DHT22;22480;50.546;12.292;2023-04-25T14:58:31;9.10;99.90
36458;DHT22;22480;50.546;12.292;2023-04-25T15:00:57;8.70;99.90
36458;DHT22;22480;50.546;12.292;2023-04-25T15:03:22;8.50;99.90
36458;DHT22;22480;50.546;12.292;2023-04-25T15:05:48;8.30;99.90
36458;DHT22;22480;50.546;12.292;2023-04-25T15:08:14;8.20;99.90
36458;DHT22;22480;50.546;12.292;2023-04-25T15:10:40;8.20;99.90
36458;DHT22;22480;50.546;12.292;2023-04-25T15:13:06;8.30;99.90
36458;DHT22;22480;50.546;12.292;2023-04-25T15:15:31;8.40;99.90
36458;DHT22;22480;50.546;12.292;2023-04-25T15:17:57;8.50;99.90
36458;DHT22;22480;50.546;12.292;2023-04-25T15:20:23;8.70;99.90
36458;DHT22;22480;50.546;12.292;2023-04-25T15:22:49;8.80;99.90
36458;DHT22;22480;50.546;12.292;2023-04-25T15:25:15;9.00;94.90
36458;DHT22;22480;50.546;12.292;2023-04-25T15:27:44;9.20;97.90
36458;DHT22;22480;50.546;12.292;2023-04-25T15:30:14;9.30;99.80
36458;DHT22;22480;50.546;12.292;2023-04-25T15:32:41;9.40;96.40
36458;DHT22;22480;50.546;12.292;2023-04-25T15:35:07;9.20;97.10
36458;DHT22;22480;50.546;12.292;2023-04-25T15:37:34;9.20;94.80
36458;DHT22;22480;50.546;12.292;2023-04-25T15:40:05;9.20;96.10
36458;DHT22;22480;50.546;12.292;2023-04-25T15:42:38;9.00;96.50
36458;DHT22;22480;50.546;12.292;2023-04-25T15:45:06;8.90;99.50
36458;DHT22;22480;50.546;12.292;2023-04-25T15:47:33;8.70;95.20
36458;DHT22;22480;50.546;12.292;2023-04-25T15:49:59;8.50;95.20
36458;DHT22;22480;50.546;12.292;2023-04-25T15:52:25;8.40;99.90
36458;DHT22;22480;50.546;12.292;2023-04-25T15:54:52;8.30;97.80
36458;DHT22;22480;50.546;12.292;2023-04-25T15:57:18;8.10;99.70
36458;DHT22;22480;50.546;12.292;2023-04-25T15:59:43;8.20;99.90
36458;DHT22;22480;50.546;12.292;2023-04-25T16:02:09;8.10;97.30